sensor_id;sensor_type;location;lat;lon;timestamp;temperature;humidity
39665;DHT22;26679;50.872;4.332;2023-04-26T00:02:02;8.90;96.80
39665;DHT22;26679;50.872;4.332;2023-04-26T00:04:29;8.90;96.90
39665;DHT22;26679;50.872;4.332;2023-04-26T00:06:55;8.90;96.90
39665;DHT22;26679;50.872;4.332;2023-04-26T00:09:21;8.90;97.00
39665;DHT22;26679;50.872;4.332;2023-04-26T00:11:46;8.90;96.90
39665;DHT22;26679;50.872;4.332;2023-04-26T00:14:12;8.90;96.90
39665;DHT22;26679;50.872;4.332;2023-04-26T00:16:38;8.00;96.90
39665;DHT22;26679;50.872;4.332;2023-04-26T00:19:03;8.80;97.20
39665;DHT22;26679;50.872;4.332;2023-04-26T00:21:29;8.70;97.40
39665;DHT22;26679;50.872;4.332;2023-04-26T00:23:54;8.80;97.50
39665;DHT22;26679;50.872;4.332;2023-04-26T00:26:20;8.70;97.50
39665;DHT22;26679;50.872;4.332;2023-04-26T00:28:45;8.70;97.50
39665;DHT22;26679;50.872;4.332;2023-04-26T00:31:14;8.70;97.40
39665;DHT22;26679;50.872;4.332;2023-04-26T00:33:40;8.80;97.30
39665;DHT22;26679;50.872;4.332;2023-04-26T00:36:05;9.40;97.60
39665;DHT22;26679;50.872;4.332;2023-04-26T00:38:31;8.80;97.40
39665;DHT22;26679;50.872;4.332;2023-04-26T00:40:57;8.90;97.50
39665;DHT22;26679;50.872;4.332;2023-04-26T00:43:22;8.80;97.70
39665;DHT22;26679;50.872;4.332;2023-04-26T00:45:48;9.00;97.70
39665;DHT22;26679;50.872;4.332;2023-04-26T00:48:14;8.80;97.60
39665;DHT22;26679;50.872;4.332;2023-04-26T00:50:40;8.60;97.80
39665;DHT22;26679;50.872;4.332;2023-04-26T00:53:05;8.60;98.00
39665;DHT22;26679;50.872;4.332;2023-04-26T00:55:32;8.60;98.10
39665;DHT22;26679;50.872;4.332;2023-04-26T00:57:58;8.40;98.30
39665;DHT22;26679;50.872;4.332;2023-04-26T01:00:23;8.30;98.60
39665;DHT22;26679;50.872;4.332;2023-04-26T01:02:50;8.30;98.90
39665;DHT22;26679;50.872;4.332;2023-04-26T01:05:16;7.00;98.60
39665;DHT22;26679;50.872;4.332;2023-04-26T01:07:42;8.10;99.00
39665;DHT22;26679;50.872;4.332;2023-04-26T01:10:08;8.10;99.10
39665;DHT22;26679;50.872;4.332;2023-04-26T01:12:34;8.10;99.30
39665;DHT22;26679;50.872;4.332;2023-04-26T01:15:01;8.20;99.40
39665;DHT22;26679;50.872;4.332;2023-04-26T01:17:27;8.10;99.50
39665;DHT22;26679;50.872;4.332;2023-04-26T01:19:52;8.10;99.60
39665;DHT22;26679;50.872;4.332;2023-04-26T01:22:18;8.10;99.70
39665;DHT22;26679;50.872;4.332;2023-04-26T01:24:44;8.00;99.60
39665;DHT22;26679;50.872;4.332;2023-04-26T01:27:10;7.90;99.70
39665;DHT22;26679;50.872;4.332;2023-04-26T01:29:36;7.90;99.80
39665;DHT22;26679;50.872;4.332;2023-04-26T01:32:01;8.30;99.90
39665;DHT22;26679;50.872;4.332;2023-04-26T01:34:27;7.80;99.90
39665;DHT22;26679;50.872;4.332;2023-04-26T01:36:52;7.80;99.90
39665;DHT22;26679;50.872;4.332;2023-04-26T01:39:18;7.80;99.90
39665;DHT22;26679;50.872;4.332;2023-04-26T01:41:43;7.80;99.90
39665;DHT22;26679;50.872;4.332;2023-04-26T01:44:09;7.70;99.90
39665;DHT22;26679;50.872;4.332;2023-04-26T01:46:34;7.70;99.90
39665;DHT22;26679;50.872;4.332;2023-04-26T01:49:00;7.70;99.90
39665;DHT22;26679;50.872;4.332;2023-04-26T01:51:25;7.60;99.90
39665;DHT22;26679;50.872;4.332;2023-04-26T01:53:51;7.50;99.90
39665;DHT22;26679;50.872;4.332;2023-04-26T01:56:17;7.40;99.90
39665;DHT22;26679;50.872;4.332;2023-04-26T01:58:43;7.40;99.90
39665;DHT22;26679;50.872;4.332;2023-04-26T02:01:08;7.40;99.90
39665;DHT22;26679;50.872;4.332;2023-04-26T02:03:34;7.60;99.90
39665;DHT22;26679;50.872;4.332;2023-04-26T02:06:00;7.40;99.90
39665;DHT22;26679;50.872;4.332;2023-04-26T02:08:26;7.40;99.90
39665;DHT22;26679;50.872;4.332;2023-04-26T02:10:51;7.40;99.90
39665;DHT22;26679;50.872;4.332;2023-04-26T02:13:17;7.40;99.90
39665;DHT22;26679;50.872;4.332;2023-04-26T02:15:47;7.30;99.90
39665;DHT22;26679;50.872;4.332;2023-04-26T02:18:12;7.20;99.90
39665;DHT22;26679;50.872;4.332;2023-04-26T02:20:41;7.30;99.90
39665;DHT22;26679;50.872;4.332;2023-04-26T02:23:10;7.30;99.90
39665;DHT22;26679;50.872;4.332;2023-04-26T02:25:36;7.30;99.90
39665;DHT22;26679;50.872;4.332;2023-04-26T02:28:02;7.30;99.90
39665;DHT22;26679;50.872;4.332;2023-04-26T02:30:28;7.60;99.90
39665;DHT22;26679;50.872;4.332;2023-04-26T02:32:53;7.20;99.90
39665;DHT22;26679;50.872;4.332;2023-04-26T02:35:19;7.30;99.90
39665;DHT22;26679;50.872;4.332;2023-04-26T02:37:45;7.40;99.90
39665;DHT22;26679;50.872;4.332;2023-04-26T02:40:19;7.30;99.90
39665;DHT22;26679;50.872;4.332;2023-04-26T02:42:45;7.20;99.90
39665;DHT22;26679;50.872;4.332;2023-04-26T02:45:11;7.20;99.90
39665;DHT22;26679;50.872;4.332;2023-04-26T02:47:37;7.20;99.90
39665;DHT22;26679;50.872;4.332;2023-04-26T02:50:04;7.10;99.90
39665;DHT22;26679;50.872;4.332;2023-04-26T02:52:29;7.10;99.90
39665;DHT22;26679;50.872;4.332;2023-04-26T02:54:55;7.10;99.90
39665;DHT22;26679;50.872;4.332;2023-04-26T02:57:21;7.10;99.90
39665;DHT22;26679;50.872;4.332;2023-04-26T02:59:46;7.10;99.90
39665;DHT22;26679;50.872;4.332;2023-04-26T03:02:12;7.00;99.90
39665;DHT22;26679;50.872;4.332;2023-04-26T03:04:37;7.00;99.90
39665;DHT22;26679;50.872;4.332;2023-04-26T03:07:04;6.90;99.90
39665;DHT22;26679;50.872;4.332;2023-04-26T03:09:29;6.90;99.90
39665;DHT22;26679;50.872;4.332;2023-04-26T03:11:55;6.80;99.90
39665;DHT22;26679;50.872;4.332;2023-04-26T03:14:20;6.80;99.90
39665;DHT22;26679;50.872;4.332;2023-04-26T03:16:46;6.80;99.90
39665;DHT22;26679;50.872;4.332;2023-04-26T03:19:12;6.70;99.90
39665;DHT22;26679;50.872;4.332;2023-04-26T03:21:38;6.70;99.90
39665;DHT22;26679;50.872;4.332;2023-04-26T03:24:04;6.80;99.90
39665;DHT22;26679;50.872;4.332;2023-04-26T03:26:31;6.70;99.90
39665;DHT22;26679;50.872;4.332;2023-04-26T03:28:56;6.60;99.90
39665;DHT22;26679;50.872;4.332;2023-04-26T03:31:22;7.00;99.90
39665;DHT22;26679;50.872;4.332;2023-04-26T03:33:48;6.70;99.90
39665;DHT22;26679;50.872;4.332;2023-04-26T03:36:13;7.40;99.90
39665;DHT22;26679;50.872;4.332;2023-04-26T03:38:39;6.70;99.90
39665;DHT22;26679;50.872;4.332;2023-04-26T03:41:05;6.70;99.90
39665;DHT22;26679;50.872;4.332;2023-04-26T03:43:30;6.70;99.90
39665;DHT22;26679;50.872;4.332;2023-04-26T03:45:56;6.70;99.90
39665;DHT22;26679;50.872;4.332;2023-04-26T03:48:22;6.70;99.90
39665;DHT22;26679;50.872;4.332;2023-04-26T03:50:47;6.80;99.90
39665;DHT22;26679;50.872;4.332;2023-04-26T03:53:13;6.80;99.90
39665;DHT22;26679;50.872;4.332;2023-04-26T03:55:38;6.80;99.90
39665;DHT22;26679;50.872;4.332;2023-04-26T03:58:04;7.10;99.90
39665;DHT22;26679;50.872;4.332;2023-04-26T04:00:38;6.80;99.90
39665;DHT22;26679;50.872;4.332;2023-04-26T04:03:05;6.90;99.90
39665;DHT22;26679;50.872;4.332;2023-04-26T04:05:31;7.60;99.90
39665;DHT22;26679;50.872;4.332;2023-04-26T04:07:57;7.00;99.90
39665;DHT22;26679;50.872;4.332;2023-04-26T04:10:22;6.90;99.90
39665;DHT22;26679;50.872;4.332;2023-04-26T04:12:48;7.10;99.90
39665;DHT22;26679;50.872;4.332;2023-04-26T04:15:14;6.90;99.90
39665;DHT22;26679;50.872;4.332;2023-04-26T04:17:40;7.00;99.90
39665;DHT22;26679;50.872;4.332;2023-04-26T04:20:06;7.00;99.90
39665;DHT22;26679;50.872;4.332;2023-04-26T04:22:32;6.90;99.90
39665;DHT22;26679;50.872;4.332;2023-04-26T04:24:57;6.90;99.90
39665;DHT22;26679;50.872;4.332;2023-04-26T04:27:24;7.10;99.90
39665;DHT22;26679;50.872;4.332;2023-04-26T04:29:50;7.00;99.90
39665;DHT22;26679;50.872;4.332;2023-04-26T04:32:15;7.10;99.90
39665;DHT22;26679;50.872;4.332;2023-04-26T04:34:41;7.10;99.90
39665;DHT22;26679;50.872;4.332;2023-04-26T04:37:08;7.10;99.90
39665;DHT22;26679;50.872;4.332;2023-04-26T04:39:34;7.20;99.90
39665;DHT22;26679;50.872;4.332;2023-04-26T04:41:59;7.30;99.90
39665;DHT22;26679;50.872;4.332;2023-04-26T04:44:25;7.20;99.90
39665;DHT22;26679;50.872;4.332;2023-04-26T04:46:51;7.20;99.90
39665;DHT22;26679;50.872;4.332;2023-04-26T04:49:16;7.10;99.90
39665;DHT22;26679;50.872;4.332;2023-04-26T04:51:43;7.20;99.90
39665;DHT22;26679;50.872;4.332;2023-04-26T04:54:12;7.20;99.90
39665;DHT22;26679;50.872;4.332;2023-04-26T04:56:37;7.20;99.90
39665;DHT22;26679;50.872;4.332;2023-04-26T04:59:04;7.20;99.90
39665;DHT22;26679;50.872;4.332;2023-04-26T05:01:30;7.20;99.90
39665;DHT22;26679;50.872;4.332;2023-04-26T05:03:56;7.20;99.90
39665;DHT22;26679;50.872;4.332;2023-04-26T05:06:22;7.20;99.90
39665;DHT22;26679;50.872;4.332;2023-04-26T05:11:23;7.20;99.90
39665;DHT22;26679;50.872;4.332;2023-04-26T05:13:49;7.30;99.90
39665;DHT22;26679;50.872;4.332;2023-04-26T05:16:15;7.20;99.90
39665;DHT22;26679;50.872;4.332;2023-04-26T05:18:41;7.30;99.90
39665;DHT22;26679;50.872;4.332;2023-04-26T05:21:06;7.40;99.90
39665;DHT22;26679;50.872;4.332;2023-04-26T05:23:32;7.20;99.90
39665;DHT22;26679;50.872;4.332;2023-04-26T05:26:01;7.30;99.90
39665;DHT22;26679;50.872;4.332;2023-04-26T05:28:26;7.30;99.90
39665;DHT22;26679;50.872;4.332;2023-04-26T05:30:53;7.30;99.90
39665;DHT22;26679;50.872;4.332;2023-04-26T05:33:18;7.40;99.90
39665;DHT22;26679;50.872;4.332;2023-04-26T05:35:44;7.40;99.90
39665;DHT22;26679;50.872;4.332;2023-04-26T05:38:10;7.40;99.90
39665;DHT22;26679;50.872;4.332;2023-04-26T05:40:35;7.50;99.90
39665;DHT22;26679;50.872;4.332;2023-04-26T05:43:01;7.50;99.90
39665;DHT22;26679;50.872;4.332;2023-04-26T05:45:27;8.00;99.90
39665;DHT22;26679;50.872;4.332;2023-04-26T05:47:52;7.50;99.90
39665;DHT22;26679;50.872;4.332;2023-04-26T05:50:18;7.50;99.90
39665;DHT22;26679;50.872;4.332;2023-04-26T05:52:43;7.80;99.90
39665;DHT22;26679;50.872;4.332;2023-04-26T05:55:09;7.50;99.90
39665;DHT22;26679;50.872;4.332;2023-04-26T05:57:35;7.60;99.90
39665;DHT22;26679;50.872;4.332;2023-04-26T06:00:00;7.60;99.90
39665;DHT22;26679;50.872;4.332;2023-04-26T06:02:27;7.60;99.90
39665;DHT22;26679;50.872;4.332;2023-04-26T06:04:52;7.50;99.90
39665;DHT22;26679;50.872;4.332;2023-04-26T06:07:18;7.60;99.90
39665;DHT22;26679;50.872;4.332;2023-04-26T06:09:43;7.70;99.90
39665;DHT22;26679;50.872;4.332;2023-04-26T06:12:09;7.70;99.90
39665;DHT22;26679;50.872;4.332;2023-04-26T06:14:34;7.80;99.90
39665;DHT22;26679;50.872;4.332;2023-04-26T06:17:00;7.80;99.90
39665;DHT22;26679;50.872;4.332;2023-04-26T06:19:25;7.80;99.90
39665;DHT22;26679;50.872;4.332;2023-04-26T06:21:51;7.90;99.90
39665;DHT22;26679;50.872;4.332;2023-04-26T06:24:19;8.00;99.90
39665;DHT22;26679;50.872;4.332;2023-04-26T06:26:44;8.10;99.90
39665;DHT22;26679;50.872;4.332;2023-04-26T06:29:10;8.30;99.90
39665;DHT22;26679;50.872;4.332;2023-04-26T06:31:36;8.30;99.90
39665;DHT22;26679;50.872;4.332;2023-04-26T06:34:01;8.40;99.90
39665;DHT22;26679;50.872;4.332;2023-04-26T06:36:27;8.50;99.90
39665;DHT22;26679;50.872;4.332;2023-04-26T06:38:53;8.60;99.90
39665;DHT22;26679;50.872;4.332;2023-04-26T06:41:19;8.70;99.90
39665;DHT22;26679;50.872;4.332;2023-04-26T06:43:46;8.80;99.90
39665;DHT22;26679;50.872;4.332;2023-04-26T06:46:12;9.00;99.90
39665;DHT22;26679;50.872;4.332;2023-04-26T06:48:37;9.10;99.90
39665;DHT22;26679;50.872;4.332;2023-04-26T06:51:06;10.30;99.90
39665;DHT22;26679;50.872;4.332;2023-04-26T06:53:33;9.30;99.90
39665;DHT22;26679;50.872;4.332;2023-04-26T06:55:58;9.40;99.90
39665;DHT22;26679;50.872;4.332;2023-04-26T06:58:24;9.40;99.90
39665;DHT22;26679;50.872;4.332;2023-04-26T07:00:50;9.60;99.90
39665;DHT22;26679;50.872;4.332;2023-04-26T07:03:15;9.80;99.90
39665;DHT22;26679;50.872;4.332;2023-04-26T07:05:41;9.80;99.90
39665;DHT22;26679;50.872;4.332;2023-04-26T07:10:38;9.70;97.80
39665;DHT22;26679;50.872;4.332;2023-04-26T07:13:04;9.50;98.20
39665;DHT22;26679;50.872;4.332;2023-04-26T07:15:29;9.40;98.10
39665;DHT22;26679;50.872;4.332;2023-04-26T07:17:56;9.40;98.20
39665;DHT22;26679;50.872;4.332;2023-04-26T07:20:21;9.40;98.30
39665;DHT22;26679;50.872;4.332;2023-04-26T07:22:48;9.40;97.80
39665;DHT22;26679;50.872;4.332;2023-04-26T07:25:14;9.50;97.30
39665;DHT22;26679;50.872;4.332;2023-04-26T07:27:40;9.50;97.80
39665;DHT22;26679;50.872;4.332;2023-04-26T07:30:07;9.50;97.30
39665;DHT22;26679;50.872;4.332;2023-04-26T07:32:34;9.60;97.60
39665;DHT22;26679;50.872;4.332;2023-04-26T07:35:03;9.50;97.70
39665;DHT22;26679;50.872;4.332;2023-04-26T07:37:29;9.60;97.70
39665;DHT22;26679;50.872;4.332;2023-04-26T07:39:54;9.70;97.00
39665;DHT22;26679;50.872;4.332;2023-04-26T07:42:20;9.70;97.10
39665;DHT22;26679;50.872;4.332;2023-04-26T07:44:46;10.00;97.20
39665;DHT22;26679;50.872;4.332;2023-04-26T07:47:12;10.30;97.00
39665;DHT22;26679;50.872;4.332;2023-04-26T07:49:40;10.30;96.20
39665;DHT22;26679;50.872;4.332;2023-04-26T07:52:07;10.40;96.30
39665;DHT22;26679;50.872;4.332;2023-04-26T07:54:32;10.50;96.40
39665;DHT22;26679;50.872;4.332;2023-04-26T07:56:58;10.70;96.20
39665;DHT22;26679;50.872;4.332;2023-04-26T07:59:24;10.80;96.10
39665;DHT22;26679;50.872;4.332;2023-04-26T08:01:49;10.80;95.60
39665;DHT22;26679;50.872;4.332;2023-04-26T08:04:16;10.50;95.00
39665;DHT22;26679;50.872;4.332;2023-04-26T08:06:41;9.70;95.40
39665;DHT22;26679;50.872;4.332;2023-04-26T08:09:09;10.70;95.90
39665;DHT22;26679;50.872;4.332;2023-04-26T08:11:35;11.00;95.30
39665;DHT22;26679;50.872;4.332;2023-04-26T08:14:01;11.20;94.60
39665;DHT22;26679;50.872;4.332;2023-04-26T08:16:28;11.10;94.50
39665;DHT22;26679;50.872;4.332;2023-04-26T08:18:54;11.20;94.50
39665;DHT22;26679;50.872;4.332;2023-04-26T08:21:20;11.20;93.90
39665;DHT22;26679;50.872;4.332;2023-04-26T08:23:45;10.50;94.40
39665;DHT22;26679;50.872;4.332;2023-04-26T08:26:11;10.50;94.70
39665;DHT22;26679;50.872;4.332;2023-04-26T08:28:37;10.60;95.00
39665;DHT22;26679;50.872;4.332;2023-04-26T08:31:03;10.70;94.60
39665;DHT22;26679;50.872;4.332;2023-04-26T08:33:28;10.70;94.30
39665;DHT22;26679;50.872;4.332;2023-04-26T08:35:54;11.00;94.40
39665;DHT22;26679;50.872;4.332;2023-04-26T08:38:20;11.40;94.30
39665;DHT22;26679;50.872;4.332;2023-04-26T08:40:47;11.40;93.80
39665;DHT22;26679;50.872;4.332;2023-04-26T08:43:14;11.40;93.40
39665;DHT22;26679;50.872;4.332;2023-04-26T08:45:40;11.50;93.60
39665;DHT22;26679;50.872;4.332;2023-04-26T08:48:10;11.50;93.30
39665;DHT22;26679;50.872;4.332;2023-04-26T09:01:04;11.90;92.30
39665;DHT22;26679;50.872;4.332;2023-04-26T09:03:30;12.30;91.60
39665;DHT22;26679;50.872;4.332;2023-04-26T09:06:01;12.60;91.60
39665;DHT22;26679;50.872;4.332;2023-04-26T11:07:16;17.70;71.00
39665;DHT22;26679;50.872;4.332;2023-04-26T11:20:22;19.50;70.10
39665;DHT22;26679;50.872;4.332;2023-04-26T11:22:52;19.10;69.80
39665;DHT22;26679;50.872;4.332;2023-04-26T11:25:18;18.10;70.30
39665;DHT22;26679;50.872;4.332;2023-04-26T11:27:44;17.30;71.80
39665;DHT22;26679;50.872;4.332;2023-04-26T11:30:11;17.10;73.40
39665;DHT22;26679;50.872;4.332;2023-04-26T11:32:37;18.40;73.10
39665;DHT22;26679;50.872;4.332;2023-04-26T11:35:02;20.10;71.10
39665;DHT22;26679;50.872;4.332;2023-04-26T11:42:39;24.20;65.60
39665;DHT22;26679;50.872;4.332;2023-04-26T11:45:07;25.20;64.70
39665;DHT22;26679;50.872;4.332;2023-04-26T11:47:33;26.00;63.00
39665;DHT22;26679;50.872;4.332;2023-04-26T11:49:59;26.10;61.90
39665;DHT22;26679;50.872;4.332;2023-04-26T11:52:25;26.20;60.90
39665;DHT22;26679;50.872;4.332;2023-04-26T11:57:29;26.80;60.30
39665;DHT22;26679;50.872;4.332;2023-04-26T12:00:05;27.00;59.60
39665;DHT22;26679;50.872;4.332;2023-04-26T13:07:11;18.20;63.10
39665;DHT22;26679;50.872;4.332;2023-04-26T13:12:08;18.30;64.30
39665;DHT22;26679;50.872;4.332;2023-04-26T13:14:33;18.60;64.60
39665;DHT22;26679;50.872;4.332;2023-04-26T13:16:59;19.40;63.80
39665;DHT22;26679;50.872;4.332;2023-04-26T13:19:24;19.70;63.50
39665;DHT22;26679;50.872;4.332;2023-04-26T13:21:51;20.30;61.90
39665;DHT22;26679;50.872;4.332;2023-04-26T13:24:17;20.40;62.50
39665;DHT22;26679;50.872;4.332;2023-04-26T13:26:42;20.60;62.20
39665;DHT22;26679;50.872;4.332;2023-04-26T13:29:08;20.50;62.00
39665;DHT22;26679;50.872;4.332;2023-04-26T13:31:34;22.10;62.10
39665;DHT22;26679;50.872;4.332;2023-04-26T13:34:01;23.10;60.40
39665;DHT22;26679;50.872;4.332;2023-04-26T13:39:03;22.50;60.30
39665;DHT22;26679;50.872;4.332;2023-04-26T13:41:29;22.30;60.90
39665;DHT22;26679;50.872;4.332;2023-04-26T13:43:58;22.30;60.60
39665;DHT22;26679;50.872;4.332;2023-04-26T13:46:24;22.50;60.20
39665;DHT22;26679;50.872;4.332;2023-04-26T14:12:03;22.40;58.60
39665;DHT22;26679;50.872;4.332;2023-04-26T14:14:29;21.50;59.80
39665;DHT22;26679;50.872;4.332;2023-04-26T14:16:55;22.30;60.10
39665;DHT22;26679;50.872;4.332;2023-04-26T14:19:20;23.60;59.30
39665;DHT22;26679;50.872;4.332;2023-04-26T14:21:46;23.90;59.00
39665;DHT22;26679;50.872;4.332;2023-04-26T14:26:51;24.30;57.40
39665;DHT22;26679;50.872;4.332;2023-04-26T14:29:17;22.90;57.90
39665;DHT22;26679;50.872;4.332;2023-04-26T14:31:43;22.30;58.80
39665;DHT22;26679;50.872;4.332;2023-04-26T14:34:09;21.50;59.50
39665;DHT22;26679;50.872;4.332;2023-04-26T14:36:34;20.80;60.10
39665;DHT22;26679;50.872;4.332;2023-04-26T14:39:01;19.30;62.40
39665;DHT22;26679;50.872;4.332;2023-04-26T14:41:26;19.60;61.40
39665;DHT22;26679;50.872;4.332;2023-04-26T14:43:52;19.60;62.50
39665;DHT22;26679;50.872;4.332;2023-04-26T14:46:18;19.20;62.10
39665;DHT22;26679;50.872;4.332;2023-04-26T15:01:38;19.50;62.50
39665;DHT22;26679;50.872;4.332;2023-04-26T15:04:04;20.10;62.50
39665;DHT22;26679;50.872;4.332;2023-04-26T15:06:30;20.40;62.10
39665;DHT22;26679;50.872;4.332;2023-04-26T15:08:57;20.60;61.70
39665;DHT22;26679;50.872;4.332;2023-04-26T15:11:23;20.40;61.30
39665;DHT22;26679;50.872;4.332;2023-04-26T15:13:52;20.60;61.20
39665;DHT22;26679;50.872;4.332;2023-04-26T15:16:18;20.90;60.70
39665;DHT22;26679;50.872;4.332;2023-04-26T15:18:44;20.30;60.90
39665;DHT22;26679;50.872;4.332;2023-04-26T15:21:14;20.50;61.70
39665;DHT22;26679;50.872;4.332;2023-04-26T15:23:40;20.70;61.20
39665;DHT22;26679;50.872;4.332;2023-04-26T15:26:05;21.10;60.70
39665;DHT22;26679;50.872;4.332;2023-04-26T15:28:31;21.20;60.50
39665;DHT22;26679;50.872;4.332;2023-04-26T15:31:00;21.80;61.40
39665;DHT22;26679;50.872;4.332;2023-04-26T15:33:26;23.10;60.30
39665;DHT22;26679;50.872;4.332;2023-04-26T15:35:51;23.60;60.10
39665;DHT22;26679;50.872;4.332;2023-04-26T15:38:17;23.60;59.40
39665;DHT22;26679;50.872;4.332;2023-04-26T15:40:42;23.60;59.20
39665;DHT22;26679;50.872;4.332;2023-04-26T15:43:09;22.70;58.80
39665;DHT22;26679;50.872;4.332;2023-04-26T15:45:34;22.00;59.90
39665;DHT22;26679;50.872;4.332;2023-04-26T15:50:30;21.50;60.40
39665;DHT22;26679;50.872;4.332;2023-04-26T15:52:55;21.50;60.70
39665;DHT22;26679;50.872;4.332;2023-04-26T15:55:22;21.20;59.80
39665;DHT22;26679;50.872;4.332;2023-04-26T15:57:48;22.20;60.10
39665;DHT22;26679;50.872;4.332;2023-04-26T16:07:55;23.60;59.30
39665;DHT22;26679;50.872;4.332;2023-04-26T16:13:19;24.10;58.70
39665;DHT22;26679;50.872;4.332;2023-04-26T16:15:52;22.70;58.40
39665;DHT22;26679;50.872;4.332;2023-04-26T16:18:18;21.80;59.80
39665;DHT22;26679;50.872;4.332;2023-04-26T16:23:24;21.10;60.90
39665;DHT22;26679;50.872;4.332;2023-04-26T16:28:32;22.40;60.70
39665;DHT22;26679;50.872;4.332;2023-04-26T16:31:17;22.70;59.70
39665;DHT22;26679;50.872;4.332;2023-04-26T16:33:43;23.10;59.60
39665;DHT22;26679;50.872;4.332;2023-04-26T16:36:08;22.80;60.00
39665;DHT22;26679;50.872;4.332;2023-04-26T16:38:34;23.10;60.20
39665;DHT22;26679;50.872;4.332;2023-04-26T16:40:59;23.60;59.80
39665;DHT22;26679;50.872;4.332;2023-04-26T16:43:26;23.70;59.20
39665;DHT22;26679;50.872;4.332;2023-04-26T16:45:55;23.60;59.00
39665;DHT22;26679;50.872;4.332;2023-04-26T16:48:21;23.40;59.30
39665;DHT22;26679;50.872;4.332;2023-04-26T16:50:48;23.70;59.70
39665;DHT22;26679;50.872;4.332;2023-04-26T16:53:13;23.90;59.00
39665;DHT22;26679;50.872;4.332;2023-04-26T16:55:39;23.50;58.80
39665;DHT22;26679;50.872;4.332;2023-04-26T16:58:04;23.30;59.10
39665;DHT22;26679;50.872;4.332;2023-04-26T17:00:30;23.30;58.70
39665;DHT22;26679;50.872;4.332;2023-04-26T17:02:55;23.10;59.10
39665;DHT22;26679;50.872;4.332;2023-04-26T17:05:21;22.90;58.70
39665;DHT22;26679;50.872;4.332;2023-04-26T17:07:47;22.80;59.10
39665;DHT22;26679;50.872;4.332;2023-04-26T17:10:12;20.60;60.40
39665;DHT22;26679;50.872;4.332;2023-04-26T17:12:38;19.50;62.10
39665;DHT22;26679;50.872;4.332;2023-04-26T17:15:03;19.10;63.10
39665;DHT22;26679;50.872;4.332;2023-04-26T17:17:32;19.60;63.70
39665;DHT22;26679;50.872;4.332;2023-04-26T17:19:58;20.30;63.60
39665;DHT22;26679;50.872;4.332;2023-04-26T17:22:24;20.60;63.00
39665;DHT22;26679;50.872;4.332;2023-04-26T17:24:50;20.80;62.90
39665;DHT22;26679;50.872;4.332;2023-04-26T17:27:15;20.30;62.70
39665;DHT22;26679;50.872;4.332;2023-04-26T17:29:42;20.30;63.10
39665;DHT22;26679;50.872;4.332;2023-04-26T17:32:08;20.30;63.40
39665;DHT22;26679;50.872;4.332;2023-04-26T17:34:33;20.40;63.30
39665;DHT22;26679;50.872;4.332;2023-04-26T17:36:59;20.20;63.00
39665;DHT22;26679;50.872;4.332;2023-04-26T17:39:25;20.60;63.40
39665;DHT22;26679;50.872;4.332;2023-04-26T17:41:50;19.80;63.40
39665;DHT22;26679;50.872;4.332;2023-04-26T17:44:16;19.70;63.30
39665;DHT22;26679;50.872;4.332;2023-04-26T17:46:47;18.50;63.50
39665;DHT22;26679;50.872;4.332;2023-04-26T17:49:16;19.50;63.70
39665;DHT22;26679;50.872;4.332;2023-04-26T17:51:45;19.20;63.60
39665;DHT22;26679;50.872;4.332;2023-04-26T17:54:13;19.20;64.30
39665;DHT22;26679;50.872;4.332;2023-04-26T17:56:39;18.80;64.50
39665;DHT22;26679;50.872;4.332;2023-04-26T17:59:08;18.70;64.90
39665;DHT22;26679;50.872;4.332;2023-04-26T18:01:35;17.90;65.10
39665;DHT22;26679;50.872;4.332;2023-04-26T18:04:03;17.60;66.30
39665;DHT22;26679;50.872;4.332;2023-04-26T18:06:31;17.30;66.50
39665;DHT22;26679;50.872;4.332;2023-04-26T18:09:07;16.90;66.70
39665;DHT22;26679;50.872;4.332;2023-04-26T18:11:35;16.70;68.40
39665;DHT22;26679;50.872;4.332;2023-04-26T18:14:04;16.50;68.30
39665;DHT22;26679;50.872;4.332;2023-04-26T18:16:32;16.40;68.70
39665;DHT22;26679;50.872;4.332;2023-04-26T18:18:58;16.10;69.00
39665;DHT22;26679;50.872;4.332;2023-04-26T18:21:30;15.80;70.40
39665;DHT22;26679;50.872;4.332;2023-04-26T18:23:56;14.70;69.60
39665;DHT22;26679;50.872;4.332;2023-04-26T18:39:23;14.70;73.60
39665;DHT22;26679;50.872;4.332;2023-04-26T18:41:53;14.00;73.70
39665;DHT22;26679;50.872;4.332;2023-04-26T18:46:55;14.50;74.40
39665;DHT22;26679;50.872;4.332;2023-04-26T18:49:33;14.10;74.90
39665;DHT22;26679;50.872;4.332;2023-04-26T18:51:59;12.70;74.90
39665;DHT22;26679;50.872;4.332;2023-04-26T18:54:28;15.60;76.60
39665;DHT22;26679;50.872;4.332;2023-04-26T18:56:58;14.10;76.00
39665;DHT22;26679;50.872;4.332;2023-04-26T19:02:02;14.00;76.20
39665;DHT22;26679;50.872;4.332;2023-04-26T19:04:29;13.90;76.70
39665;DHT22;26679;50.872;4.332;2023-04-26T19:07:06;13.70;77.00
39665;DHT22;26679;50.872;4.332;2023-04-26T19:09:50;13.70;76.90
39665;DHT22;26679;50.872;4.332;2023-04-26T19:12:19;13.60;76.90
39665;DHT22;26679;50.872;4.332;2023-04-26T19:19:53;13.10;78.00
39665;DHT22;26679;50.872;4.332;2023-04-26T19:22:19;12.70;78.90
39665;DHT22;26679;50.872;4.332;2023-04-26T19:24:52;12.40;80.00
39665;DHT22;26679;50.872;4.332;2023-04-26T19:27:21;12.50;79.70
39665;DHT22;26679;50.872;4.332;2023-04-26T19:29:47;12.40;79.90
39665;DHT22;26679;50.872;4.332;2023-04-26T19:34:51;12.30;79.90
39665;DHT22;26679;50.872;4.332;2023-04-26T19:37:40;12.30;80.40
39665;DHT22;26679;50.872;4.332;2023-04-26T19:40:06;12.50;80.50
39665;DHT22;26679;50.872;4.332;2023-04-26T19:42:34;12.50;80.10
39665;DHT22;26679;50.872;4.332;2023-04-26T19:45:00;12.60;80.00
39665;DHT22;26679;50.872;4.332;2023-04-26T19:52:38;12.20;80.20
39665;DHT22;26679;50.872;4.332;2023-04-26T19:55:07;12.10;80.90
39665;DHT22;26679;50.872;4.332;2023-04-26T19:57:36;12.10;81.00
39665;DHT22;26679;50.872;4.332;2023-04-26T20:00:05;12.10;81.20
39665;DHT22;26679;50.872;4.332;2023-04-26T20:07:51;12.10;81.20
39665;DHT22;26679;50.872;4.332;2023-04-26T20:10:21;10.40;80.70
39665;DHT22;26679;50.872;4.332;2023-04-26T20:12:47;11.90;82.00
39665;DHT22;26679;50.872;4.332;2023-04-26T20:15:16;11.90;82.50
39665;DHT22;26679;50.872;4.332;2023-04-26T20:17:42;11.80;82.40
39665;DHT22;26679;50.872;4.332;2023-04-26T20:22:43;11.90;82.50
39665;DHT22;26679;50.872;4.332;2023-04-26T20:25:08;11.60;83.00
39665;DHT22;26679;50.872;4.332;2023-04-26T20:27:36;11.40;83.50
39665;DHT22;26679;50.872;4.332;2023-04-26T20:30:02;11.50;83.60
39665;DHT22;26679;50.872;4.332;2023-04-26T20:32:39;11.50;83.50
39665;DHT22;26679;50.872;4.332;2023-04-26T20:42:49;11.20;84.50
39665;DHT22;26679;50.872;4.332;2023-04-26T20:45:32;11.10;85.30
39665;DHT22;26679;50.872;4.332;2023-04-26T20:47:58;11.90;85.30
39665;DHT22;26679;50.872;4.332;2023-04-26T20:55:27;11.20;85.10
39665;DHT22;26679;50.872;4.332;2023-04-26T20:57:52;11.30;85.30
39665;DHT22;26679;50.872;4.332;2023-04-26T21:00:18;11.40;85.50
39665;DHT22;26679;50.872;4.332;2023-04-26T21:02:43;11.40;85.50
39665;DHT22;26679;50.872;4.332;2023-04-26T21:05:25;11.10;85.60